createdAt,value
2017-06-22T13:13:23.676Z,6.50
2017-06-22T16:40:29.041Z,7.10
2017-06-22T16:42:57.073Z,7.13
2017-06-22T16:45:24.586Z,8.50
2017-06-22T16:47:52.538Z,8.10
2017-06-22T16:50:19.975Z,7.83
2017-06-22T16:52:47.437Z,7.83
2017-06-22T16:55:15.215Z,7.53
2017-06-22T16:57:43.104Z,7.10
2017-06-22T17:00:10.934Z,7.30
2017-06-22T17:02:38.581Z,7.90
2017-06-22T17:05:06.611Z,7.87
2017-06-22T17:07:34.060Z,7.30
2017-06-22T17:10:01.639Z,7.40
2017-06-22T17:12:29.294Z,7.70
2017-06-22T17:14:56.731Z,7.67
2017-06-22T17:17:24.519Z,7.60
2017-06-22T17:19:52.375Z,7.40
2017-06-22T17:22:19.971Z,7.40
2017-06-22T17:24:48.526Z,6.70
2017-06-22T17:27:16.498Z,7.50
2017-06-22T17:29:44.272Z,7.30
2017-06-22T17:32:11.831Z,8.33
2017-06-22T17:34:39.491Z,7.33
2017-06-22T17:37:07.969Z,8.40
2017-06-22T17:39:36.348Z,8.20
2017-06-22T17:42:04.606Z,7.70
2017-06-22T17:44:32.078Z,7.80
2017-06-22T17:46:59.855Z,6.30
2017-06-22T17:49:27.315Z,6.93
2017-06-22T17:51:55.046Z,7.43
2017-06-22T17:54:24.169Z,7.40
2017-06-22T17:56:52.237Z,7.70
2017-06-22T17:59:21.113Z,7.50
2017-06-22T18:01:49.823Z,8.00
2017-06-22T18:04:17.591Z,7.37
2017-06-22T18:06:45.663Z,6.87
2017-06-22T18:09:13.386Z,7.53
2017-06-22T18:11:40.985Z,7.50
2017-06-22T18:14:08.456Z,7.33
2017-06-22T18:16:36.724Z,7.13
2017-06-22T18:19:04.922Z,7.13
2017-06-22T18:21:32.635Z,6.90
2017-06-22T18:24:00.195Z,7.83
2017-06-22T18:26:27.920Z,6.93
2017-06-22T18:28:55.614Z,7.43
2017-06-22T18:31:23.139Z,7.30
2017-06-22T18:33:51.079Z,6.97
2017-06-22T18:36:18.547Z,7.57
2017-06-22T18:38:46.407Z,7.90
2017-06-22T18:41:14.438Z,6.93
2017-06-22T18:43:42.116Z,7.30
2017-06-22T18:46:09.560Z,7.10
2017-06-22T18:48:37.182Z,7.77
2017-06-22T18:51:04.654Z,7.37
2017-06-22T18:53:32.508Z,6.77
2017-06-22T18:56:00.550Z,7.67
2017-06-22T18:58:29.040Z,7.17
2017-06-22T19:00:57.425Z,7.43
2017-06-22T19:03:25.585Z,7.27
2017-06-22T19:05:53.568Z,6.90
2017-06-22T19:08:21.338Z,6.93
2017-06-22T19:10:49.725Z,6.83
2017-06-22T19:13:19.086Z,6.73
2017-06-22T19:15:46.978Z,7.40
2017-06-22T19:18:14.546Z,7.13
2017-06-22T19:20:42.989Z,6.90
2017-06-22T19:23:10.791Z,6.93
2017-06-22T19:25:38.242Z,6.63
2017-06-22T19:28:05.694Z,6.93
2017-06-22T19:30:33.776Z,6.53
2017-06-22T19:33:01.847Z,6.63
2017-06-22T19:35:29.797Z,6.83
2017-06-22T19:37:58.511Z,6.50
2017-06-22T19:40:26.855Z,6.77
2017-06-22T19:42:55.507Z,7.30
2017-06-22T19:45:23.080Z,7.83
2017-06-22T19:47:50.911Z,6.83
2017-06-22T19:50:19.028Z,6.63
2017-06-22T19:52:46.743Z,6.97
2017-06-22T19:55:16.036Z,7.23
2017-06-22T19:57:43.812Z,6.57
2017-06-22T20:00:12.588Z,7.43
2017-06-22T20:02:40.067Z,8.20
2017-06-22T20:05:08.634Z,8.30
2017-06-22T20:07:36.459Z,7.90
2017-06-22T20:10:04.178Z,8.20
2017-06-22T20:12:32.349Z,8.97
2017-06-22T20:15:00.617Z,9.00
2017-06-22T20:17:28.880Z,8.77
2017-06-22T20:19:57.222Z,10.00
2017-06-22T20:22:25.760Z,9.40
2017-06-22T20:24:53.683Z,9.27
2017-06-22T20:27:21.699Z,9.73
2017-06-22T20:29:49.604Z,11.60
2017-06-22T20:32:17.740Z,12.13
2017-06-22T20:34:45.456Z,13.53
2017-06-22T20:37:12.952Z,12.40
2017-06-22T20:39:40.645Z,12.70
2017-06-22T20:42:08.669Z,14.23
2017-06-22T20:44:36.348Z,13.40
2017-06-22T20:47:04.447Z,13.07
2017-06-22T20:49:32.516Z,14.30
2017-06-22T20:52:00.528Z,14.50
2017-06-22T20:54:28.607Z,12.80
2017-06-22T20:56:56.555Z,14.00
2017-06-22T20:59:25.945Z,13.60
2017-06-22T21:01:53.678Z,13.50
2017-06-22T21:04:21.254Z,15.57
2017-06-22T21:06:48.816Z,15.20
2017-06-22T21:09:16.491Z,15.40
2017-06-22T21:11:44.483Z,13.57
2017-06-22T21:14:12.047Z,14.47
2017-06-22T21:16:40.383Z,15.30
2017-06-22T21:19:08.750Z,14.07
2017-06-22T21:21:37.455Z,15.50
2017-06-22T21:24:07.070Z,14.40
2017-06-22T21:26:35.648Z,15.43
2017-06-22T21:29:03.409Z,14.10
2017-06-22T21:31:31.047Z,13.60
2017-06-22T21:33:58.606Z,14.70
2017-06-22T21:36:27.179Z,14.57
2017-06-22T21:38:55.196Z,15.80
2017-06-22T21:41:23.283Z,15.30
2017-06-22T21:43:51.763Z,15.30
2017-06-22T21:46:20.080Z,13.23
2017-06-22T21:48:47.819Z,15.07
2017-06-22T21:51:15.652Z,13.83
2017-06-22T21:53:43.692Z,13.90
2017-06-22T21:56:12.020Z,15.50
2017-06-22T21:58:40.677Z,15.20
2017-06-22T22:01:08.673Z,14.80
2017-06-22T22:03:36.431Z,14.70
2017-06-22T22:06:04.326Z,14.73
2017-06-22T22:08:33.778Z,15.97
2017-06-22T22:11:01.769Z,14.80
2017-06-22T22:13:29.930Z,14.90
2017-06-22T22:15:57.591Z,15.00
2017-06-22T22:18:26.230Z,14.07
2017-06-22T22:20:54.451Z,15.80
2017-06-22T22:23:22.851Z,14.40
2017-06-22T22:25:51.928Z,15.60
2017-06-22T22:28:20.122Z,16.40
2017-06-22T22:30:48.199Z,15.70
2017-06-22T22:33:16.917Z,15.57
2017-06-22T22:35:44.423Z,16.17
2017-06-22T22:38:12.199Z,15.93
2017-06-22T22:40:40.571Z,15.40
2017-06-22T22:43:08.718Z,14.17
2017-06-22T22:45:38.090Z,16.03
2017-06-22T22:48:06.952Z,14.60
2017-06-22T22:50:34.928Z,15.83
2017-06-22T22:53:02.623Z,13.68
2017-06-22T22:55:30.423Z,16.30
2017-06-22T22:57:57.994Z,14.77
2017-06-22T23:00:26.519Z,14.77
2017-06-22T23:02:54.580Z,15.77
2017-06-22T23:05:22.808Z,15.30
2017-06-22T23:07:50.723Z,16.00
2017-06-22T23:10:19.108Z,14.20
2017-06-22T23:12:47.268Z,15.10
2017-06-22T23:15:16.269Z,15.87
2017-06-22T23:17:44.310Z,16.67
2017-06-22T23:20:12.356Z,14.67
2017-06-22T23:22:40.076Z,16.07
2017-06-22T23:25:09.172Z,15.40
2017-06-22T23:27:37.859Z,14.53
2017-06-22T23:30:05.631Z,15.50
2017-06-22T23:32:33.390Z,14.97
2017-06-22T23:35:01.971Z,13.17
2017-06-22T23:37:29.473Z,14.93
2017-06-22T23:39:58.017Z,15.37
2017-06-22T23:42:26.185Z,15.20
2017-06-22T23:44:54.073Z,14.70
2017-06-22T23:47:21.904Z,15.73
2017-06-22T23:49:49.381Z,13.40
2017-06-22T23:52:17.850Z,14.97
2017-06-22T23:54:46.447Z,15.17
2017-06-22T23:57:15.034Z,14.47
2017-06-22T23:59:43.416Z,15.00
